createdAt,value
2023-01-03T00:00:31.829Z,94.56
2023-01-03T00:01:34.382Z,94.87
2023-01-03T00:02:36.928Z,95.48
2023-01-03T00:03:38.504Z,95.10
2023-01-03T00:04:47.469Z,94.69
2023-01-03T00:05:50.791Z,94.40
2023-01-03T00:06:54.386Z,94.34
2023-01-03T00:07:56.193Z,94.13
2023-01-03T00:09:03.448Z,94.21
2023-01-03T00:10:09.901Z,93.97
2023-01-03T00:11:13.898Z,94.54
2023-01-03T00:12:30.230Z,95.80
2023-01-03T00:13:32.534Z,94.62
2023-01-03T00:14:37.411Z,94.36
2023-01-03T00:15:39.027Z,93.73
2023-01-03T00:16:41.703Z,92.55
2023-01-03T00:17:44.449Z,92.51
2023-01-03T00:18:46.560Z,92.69
2023-01-03T00:19:50.462Z,92.74
2023-01-03T00:20:52.044Z,93.12
2023-01-03T00:21:55.331Z,92.62
2023-01-03T00:22:59.912Z,91.10
2023-01-03T00:24:02.002Z,91.58
2023-01-03T00:25:04.891Z,91.03
2023-01-03T00:26:10.848Z,90.13
2023-01-03T00:27:13.864Z,90.38
2023-01-03T00:28:15.398Z,90.26
2023-01-03T00:29:17.971Z,90.91
2023-01-03T00:30:19.501Z,91.25
2023-01-03T00:31:21.996Z,91.34
2023-01-03T00:32:24.538Z,92.10
2023-01-03T00:33:26.063Z,91.96
2023-01-03T00:34:28.966Z,91.17
2023-01-03T00:35:32.302Z,90.25
2023-01-03T00:36:35.597Z,89.54
2023-01-03T00:37:37.207Z,89.25
2023-01-03T00:38:39.747Z,89.05
2023-01-03T00:39:41.759Z,88.63
2023-01-03T00:40:44.356Z,88.47
2023-01-03T00:41:45.996Z,88.05
2023-01-03T00:43:06.116Z,88.06
2023-01-03T00:44:09.544Z,88.38
2023-01-03T00:45:13.212Z,88.34
2023-01-03T00:46:19.743Z,87.89
2023-01-03T00:47:21.548Z,87.01
2023-01-03T00:48:24.522Z,86.73
2023-01-03T00:49:27.350Z,87.28
2023-01-03T00:50:28.822Z,86.38
2023-01-03T00:51:33.932Z,86.48
2023-01-03T00:52:35.453Z,86.67
2023-01-03T00:53:39.209Z,86.82
2023-01-03T00:54:40.690Z,86.60
2023-01-03T00:55:43.549Z,86.21
2023-01-03T00:56:46.640Z,86.55
2023-01-03T00:57:49.113Z,86.59
2023-01-03T00:58:51.158Z,86.33
2023-01-03T00:59:53.752Z,88.92
2023-01-03T01:00:55.222Z,88.88
2023-01-03T01:01:58.619Z,88.69
2023-01-03T01:03:00.526Z,88.72
2023-01-03T01:04:06.686Z,88.18
2023-01-03T01:05:11.242Z,87.85
2023-01-03T01:06:16.000Z,87.66
2023-01-03T01:07:18.813Z,86.97
2023-01-03T01:08:21.265Z,87.21
2023-01-03T01:09:24.907Z,88.50
2023-01-03T01:10:27.366Z,88.38
2023-01-03T01:11:29.723Z,89.38
2023-01-03T01:12:32.154Z,89.38
2023-01-03T01:13:34.748Z,88.72
2023-01-03T01:14:37.335Z,88.52
2023-01-03T01:15:39.095Z,90.19
2023-01-03T01:16:41.564Z,91.69
2023-01-03T01:17:43.266Z,92.64
2023-01-03T01:18:48.764Z,93.92
2023-01-03T01:19:51.210Z,94.76
2023-01-03T01:20:52.723Z,96.94
2023-01-03T01:21:55.620Z,98.28
2023-01-03T01:22:58.477Z,97.16
2023-01-03T01:24:01.069Z,96.08
2023-01-03T01:25:03.210Z,96.52
2023-01-03T01:26:07.422Z,95.97
2023-01-03T01:27:10.449Z,95.82
2023-01-03T01:28:12.029Z,97.29
2023-01-03T01:29:16.366Z,97.84
2023-01-03T01:30:17.884Z,97.04
2023-01-03T01:31:22.037Z,95.71
2023-01-03T01:32:25.488Z,94.93
2023-01-03T01:33:28.710Z,94.78
2023-01-03T01:34:31.796Z,95.79
2023-01-03T01:35:33.444Z,94.58
2023-01-03T01:36:38.251Z,95.08
2023-01-03T01:37:39.749Z,97.57
2023-01-03T01:38:43.876Z,98.18
2023-01-03T01:39:45.379Z,96.82
2023-01-03T01:40:48.009Z,95.42
2023-01-03T01:42:13.700Z,94.31
2023-01-03T01:43:39.447Z,94.48
2023-01-03T01:44:52.966Z,94.36
2023-01-03T01:45:55.465Z,93.90
2023-01-03T01:46:57.349Z,93.97
2023-01-03T01:48:03.789Z,94.02
2023-01-03T01:49:11.334Z,94.64
2023-01-03T01:50:32.344Z,94.15
2023-01-03T01:51:35.904Z,93.49
2023-01-03T01:52:41.664Z,93.26
2023-01-03T01:53:44.737Z,92.97
2023-01-03T01:54:49.453Z,92.70
2023-01-03T01:55:53.726Z,93.41
2023-01-03T01:56:56.263Z,93.41
2023-01-03T01:57:57.923Z,93.37
2023-01-03T01:59:00.468Z,93.43
2023-01-03T02:00:02.100Z,93.49
2023-01-03T02:01:06.393Z,92.72
2023-01-03T02:02:09.693Z,92.11
2023-01-03T02:03:13.324Z,92.12
2023-01-03T02:04:20.925Z,92.88
2023-01-03T02:05:24.051Z,93.01
2023-01-03T02:06:25.600Z,92.63
2023-01-03T02:07:28.112Z,92.79
2023-01-03T02:08:29.676Z,93.69
2023-01-03T02:09:35.429Z,93.38
2023-01-03T02:10:57.606Z,92.28
2023-01-03T02:12:27.889Z,91.08
2023-01-03T02:13:37.679Z,91.43
2023-01-03T02:14:58.759Z,91.41
2023-01-03T02:16:20.699Z,91.24
2023-01-03T02:17:32.569Z,91.26
2023-01-03T02:18:47.726Z,91.41
2023-01-03T02:20:02.631Z,91.74
2023-01-03T02:21:34.467Z,92.59
2023-01-03T02:23:07.524Z,92.44
2023-01-03T02:24:34.449Z,92.36
2023-01-03T02:26:04.434Z,91.48
2023-01-03T02:27:31.271Z,91.34
2023-01-03T02:29:11.736Z,91.97
2023-01-03T02:30:30.251Z,91.67
2023-01-03T02:31:40.294Z,91.38
2023-01-03T02:32:50.552Z,91.23
2023-01-03T02:34:02.359Z,92.21
2023-01-03T02:35:08.861Z,93.14
2023-01-03T02:36:21.385Z,94.52
2023-01-03T02:37:34.491Z,94.16
2023-01-03T02:38:49.422Z,93.61
2023-01-03T02:39:58.612Z,92.40
2023-01-03T02:41:07.865Z,91.89
2023-01-03T02:42:33.131Z,91.49
2023-01-03T02:43:43.601Z,91.20
2023-01-03T02:44:54.348Z,92.25
2023-01-03T02:46:08.395Z,92.04
2023-01-03T02:47:14.791Z,91.89
2023-01-03T02:48:24.698Z,91.42
2023-01-03T02:49:32.419Z,91.32
2023-01-03T02:50:41.715Z,91.07
2023-01-03T02:51:49.592Z,91.28
2023-01-03T02:52:54.997Z,91.88
2023-01-03T02:53:59.412Z,91.66
2023-01-03T02:55:06.526Z,92.46
2023-01-03T02:56:13.887Z,93.87
2023-01-03T02:57:18.313Z,96.56
2023-01-03T02:58:24.890Z,96.65
2023-01-03T02:59:33.158Z,95.79
2023-01-03T03:00:41.360Z,94.49
2023-01-03T03:01:45.089Z,93.27
2023-01-03T03:02:51.874Z,93.19
2023-01-03T03:03:54.504Z,92.87
2023-01-03T03:04:58.792Z,93.05
2023-01-03T03:06:11.810Z,93.88
2023-01-03T03:07:19.796Z,95.27
2023-01-03T03:08:21.477Z,96.68
2023-01-03T03:09:24.670Z,95.51
2023-01-03T03:10:41.880Z,95.00
2023-01-03T03:12:02.572Z,95.93
2023-01-03T03:13:14.836Z,95.89
2023-01-03T03:14:23.738Z,95.56
2023-01-03T03:15:32.250Z,95.69
2023-01-03T03:16:50.526Z,95.58
2023-01-03T03:17:58.480Z,96.12
2023-01-03T03:19:02.972Z,95.86
2023-01-03T03:20:31.242Z,95.68
2023-01-03T03:21:55.196Z,96.25
2023-01-03T03:23:21.269Z,96.04
2023-01-03T03:24:47.761Z,95.47
2023-01-03T03:25:55.484Z,95.35
2023-01-03T03:26:59.821Z,95.48
2023-01-03T03:28:23.833Z,96.50
2023-01-03T03:29:29.253Z,96.73
2023-01-03T03:30:33.312Z,96.14
2023-01-03T03:31:40.553Z,96.51
2023-01-03T03:32:44.859Z,96.08
2023-01-03T03:33:53.599Z,96.35
2023-01-03T03:34:57.971Z,97.19
2023-01-03T03:36:07.480Z,97.55
2023-01-03T03:37:14.440Z,97.21
2023-01-03T03:38:23.847Z,98.89
2023-01-03T03:39:45.722Z,98.06
2023-01-03T03:41:15.944Z,98.16
2023-01-03T03:43:01.707Z,97.55
2023-01-03T03:44:30.203Z,97.18
2023-01-03T03:45:38.702Z,97.57
2023-01-03T03:46:54.790Z,97.57
2023-01-03T03:48:01.958Z,98.52
2023-01-03T03:49:29.274Z,97.96
2023-01-03T03:50:36.590Z,97.21
2023-01-03T03:51:41.058Z,97.80
2023-01-03T03:52:47.557Z,97.37
2023-01-03T03:53:51.034Z,97.11
2023-01-03T03:54:58.576Z,98.50
2023-01-03T03:56:05.550Z,97.72
2023-01-03T03:57:14.592Z,97.33
2023-01-03T03:58:21.524Z,97.31
2023-01-03T03:59:25.694Z,96.44
2023-01-03T04:00:31.425Z,96.08
2023-01-03T04:01:36.964Z,94.57
2023-01-03T04:02:40.279Z,93.52
2023-01-03T04:03:45.229Z,92.97
2023-01-03T04:04:49.960Z,94.48
2023-01-03T04:05:57.882Z,96.88
2023-01-03T04:06:59.946Z,98.19
2023-01-03T04:08:02.639Z,98.26
2023-01-03T04:09:04.310Z,96.96
2023-01-03T04:10:09.073Z,95.45
2023-01-03T04:11:10.784Z,93.76
2023-01-03T04:12:13.244Z,92.52
2023-01-03T04:13:14.765Z,92.00
2023-01-03T04:14:17.452Z,91.15
2023-01-03T04:15:19.367Z,90.49
2023-01-03T04:16:21.876Z,90.16
2023-01-03T04:17:23.455Z,89.92
2023-01-03T04:18:25.948Z,90.37
2023-01-03T04:19:27.592Z,90.23
2023-01-03T04:20:31.495Z,89.84
2023-01-03T04:21:33.146Z,89.67
2023-01-03T04:22:35.670Z,90.91
2023-01-03T04:23:37.381Z,92.90
2023-01-03T04:24:39.918Z,93.18
2023-01-03T04:25:41.405Z,92.56
2023-01-03T04:26:43.870Z,91.94
2023-01-03T04:27:45.756Z,91.57
2023-01-03T04:28:48.498Z,90.71
2023-01-03T04:29:50.034Z,92.44
2023-01-03T04:30:52.678Z,94.01
2023-01-03T04:31:54.341Z,93.92
2023-01-03T04:32:57.302Z,93.50
2023-01-03T04:34:01.457Z,94.54
2023-01-03T04:35:04.511Z,97.03
2023-01-03T04:36:08.504Z,99.54
2023-01-03T04:37:11.127Z,100.00
2023-01-03T04:38:13.718Z,100.00
2023-01-03T04:39:15.245Z,100.00
2023-01-03T04:40:17.779Z,100.00
2023-01-03T04:41:19.520Z,100.00
2023-01-03T04:42:39.849Z,100.00
2023-01-03T04:44:00.164Z,100.00
2023-01-03T04:45:02.646Z,99.00
2023-01-03T04:46:04.349Z,97.10
2023-01-03T04:47:06.863Z,95.33
2023-01-03T04:48:08.388Z,94.40
2023-01-03T04:49:11.679Z,94.05
2023-01-03T04:50:16.247Z,94.56
2023-01-03T04:51:20.041Z,94.51
2023-01-03T04:52:21.517Z,94.02
2023-01-03T04:53:25.548Z,94.20
2023-01-03T04:54:27.980Z,95.21
2023-01-03T04:55:29.549Z,96.66
2023-01-03T04:56:33.821Z,96.45
2023-01-03T04:57:36.415Z,96.28
2023-01-03T04:58:39.484Z,97.90
2023-01-03T04:59:41.103Z,98.95
2023-01-03T05:00:43.735Z,100.00
2023-01-03T05:01:52.233Z,100.00
2023-01-03T05:02:54.142Z,100.00
2023-01-03T05:03:59.718Z,100.00
2023-01-03T05:05:01.318Z,100.00
2023-01-03T05:06:05.924Z,100.00
2023-01-03T05:07:08.986Z,100.00
2023-01-03T05:08:14.037Z,100.00
2023-01-03T05:09:16.548Z,100.00
2023-01-03T05:10:18.369Z,100.00
2023-01-03T05:11:20.964Z,100.00
2023-01-03T05:12:22.646Z,100.00
2023-01-03T05:13:25.247Z,100.00
2023-01-03T05:14:26.767Z,100.00
2023-01-03T05:15:30.154Z,100.00
2023-01-03T05:16:32.090Z,100.00
2023-01-03T05:17:34.616Z,100.00
2023-01-03T05:18:37.106Z,100.00
2023-01-03T05:20:00.141Z,100.00
2023-01-03T05:21:21.727Z,100.00
2023-01-03T05:22:43.424Z,100.00
2023-01-03T05:24:03.344Z,100.00
2023-01-03T05:25:24.362Z,100.00
2023-01-03T05:26:26.901Z,100.00
2023-01-03T05:27:29.477Z,100.00
2023-01-03T05:28:31.113Z,100.00
2023-01-03T05:29:36.181Z,100.00
2023-01-03T05:30:37.651Z,100.00
2023-01-03T05:31:40.438Z,99.29
2023-01-03T05:32:42.167Z,99.76
2023-01-03T05:33:44.715Z,100.00
2023-01-03T05:34:46.631Z,100.00
2023-01-03T05:35:49.177Z,100.00
2023-01-03T05:36:51.634Z,100.00
2023-01-03T05:37:54.506Z,100.00
2023-01-03T05:38:57.353Z,100.00
2023-01-03T05:39:58.849Z,100.00
2023-01-03T05:41:01.651Z,100.00
2023-01-03T05:42:06.015Z,100.00
2023-01-03T05:43:07.603Z,100.00
2023-01-03T05:44:12.639Z,100.00
2023-01-03T05:45:14.191Z,100.00
2023-01-03T05:46:17.133Z,100.00
2023-01-03T05:47:18.809Z,100.00
2023-01-03T05:48:22.828Z,100.00
2023-01-03T05:49:24.391Z,100.00
2023-01-03T05:50:26.849Z,100.00
2023-01-03T05:51:28.399Z,100.00
2023-01-03T05:52:30.864Z,100.00
2023-01-03T05:53:34.011Z,100.00
2023-01-03T05:54:36.443Z,100.00
2023-01-03T05:55:38.498Z,100.00
2023-01-03T05:56:41.216Z,100.00
2023-01-03T05:57:43.162Z,100.00
2023-01-03T05:58:45.669Z,100.00
2023-01-03T05:59:48.227Z,100.00
2023-01-03T06:00:49.768Z,100.00
2023-01-03T06:01:52.461Z,100.00
2023-01-03T06:02:54.343Z,100.00
2023-01-03T06:03:56.995Z,100.00
2023-01-03T06:04:58.559Z,100.00
2023-01-03T06:06:05.503Z,100.00
2023-01-03T06:07:07.009Z,100.00
2023-01-03T06:08:09.505Z,99.99
2023-01-03T06:09:12.953Z,99.65
2023-01-03T06:10:15.593Z,99.11
2023-01-03T06:11:18.239Z,99.26
2023-01-03T06:12:20.804Z,99.12
2023-01-03T06:13:23.987Z,98.41
2023-01-03T06:14:26.736Z,97.61
2023-01-03T06:15:28.199Z,96.85
2023-01-03T06:16:48.303Z,95.94
2023-01-03T06:17:57.988Z,95.05
2023-01-03T06:19:04.917Z,94.67
2023-01-03T06:20:07.309Z,94.31
2023-01-03T06:21:09.846Z,94.56
2023-01-03T06:22:12.280Z,95.06
2023-01-03T06:23:14.711Z,95.56
2023-01-03T06:24:17.802Z,95.67
2023-01-03T06:25:20.445Z,95.90
2023-01-03T06:26:24.551Z,94.82
2023-01-03T06:27:27.042Z,94.46
2023-01-03T06:28:28.628Z,94.97
2023-01-03T06:29:31.248Z,95.58
2023-01-03T06:30:32.749Z,97.98
2023-01-03T06:31:35.387Z,99.87
2023-01-03T06:32:37.033Z,100.00
2023-01-03T06:33:40.491Z,100.00
2023-01-03T06:34:42.106Z,100.00
2023-01-03T06:35:44.555Z,100.00
2023-01-03T06:36:46.099Z,100.00
2023-01-03T06:37:48.572Z,100.00
2023-01-03T06:38:50.169Z,100.00
2023-01-03T06:39:54.354Z,100.00
2023-01-03T06:40:55.866Z,100.00
2023-01-03T06:41:58.358Z,100.00
2023-01-03T06:42:59.969Z,100.00
2023-01-03T06:44:02.391Z,100.00
2023-01-03T06:45:23.676Z,100.00
2023-01-03T06:46:43.997Z,100.00
2023-01-03T06:48:04.327Z,100.00
2023-01-03T06:49:32.068Z,100.00
2023-01-03T06:50:52.246Z,100.00
2023-01-03T06:52:12.308Z,100.00
2023-01-03T06:53:17.027Z,100.00
2023-01-03T06:54:23.200Z,100.00
2023-01-03T06:55:26.040Z,100.00
2023-01-03T06:56:28.685Z,100.00
2023-01-03T06:57:30.161Z,100.00
2023-01-03T06:58:33.159Z,100.00
2023-01-03T06:59:34.636Z,100.00
2023-01-03T07:00:39.139Z,100.00
2023-01-03T07:01:40.807Z,100.00
2023-01-03T07:02:43.533Z,100.00
2023-01-03T07:03:45.140Z,100.00
2023-01-03T07:04:47.631Z,100.00
2023-01-03T07:05:49.203Z,100.00
2023-01-03T07:06:51.763Z,100.00
2023-01-03T07:07:56.300Z,100.00
2023-01-03T07:08:58.741Z,100.00
2023-01-03T07:10:00.282Z,100.00
2023-01-03T07:11:04.198Z,100.00
2023-01-03T07:12:21.577Z,100.00
2023-01-03T07:13:42.597Z,100.00
2023-01-03T07:14:44.967Z,100.00
2023-01-03T07:15:46.782Z,100.00
2023-01-03T07:16:49.907Z,100.00
2023-01-03T07:17:51.467Z,100.00
2023-01-03T07:18:55.573Z,100.00
2023-01-03T07:19:57.261Z,100.00
2023-01-03T07:20:59.732Z,100.00
2023-01-03T07:22:02.186Z,100.00
2023-01-03T07:23:03.710Z,100.00
2023-01-03T07:24:08.781Z,100.00
2023-01-03T07:25:10.501Z,100.00
2023-01-03T07:26:14.305Z,100.00
2023-01-03T07:27:16.086Z,100.00
2023-01-03T07:28:18.610Z,100.00
2023-01-03T07:29:20.274Z,100.00
2023-01-03T07:30:24.944Z,100.00
2023-01-03T07:31:26.621Z,100.00
2023-01-03T07:32:29.213Z,100.00
2023-01-03T07:33:32.964Z,100.00
2023-01-03T07:34:36.087Z,100.00
2023-01-03T07:35:37.914Z,100.00
2023-01-03T07:36:40.368Z,100.00
2023-01-03T07:37:41.835Z,100.00
2023-01-03T07:38:45.756Z,99.46
2023-01-03T07:39:47.254Z,98.11
2023-01-03T07:40:49.656Z,97.53
2023-01-03T07:42:11.333Z,96.53
2023-01-03T07:43:31.333Z,96.25
2023-01-03T07:44:33.752Z,95.57
2023-01-03T07:45:35.298Z,94.94
2023-01-03T07:46:37.846Z,94.63
2023-01-03T07:47:44.028Z,94.31
2023-01-03T07:48:48.920Z,93.81
2023-01-03T07:49:50.442Z,93.66
2023-01-03T07:50:58.659Z,93.65
2023-01-03T07:52:01.108Z,93.32
2023-01-03T07:53:03.036Z,92.77
2023-01-03T07:54:05.621Z,92.59
2023-01-03T07:55:07.557Z,92.67
2023-01-03T07:56:13.497Z,92.26
2023-01-03T07:57:16.513Z,92.24
2023-01-03T07:58:19.048Z,92.01
2023-01-03T07:59:21.557Z,91.69
2023-01-03T08:00:23.616Z,91.45
2023-01-03T08:01:26.804Z,91.25
2023-01-03T08:02:29.471Z,91.45
2023-01-03T08:03:32.600Z,90.99
2023-01-03T08:04:35.116Z,90.87
2023-01-03T08:05:37.777Z,91.24
2023-01-03T08:06:40.352Z,90.97
2023-01-03T08:07:41.856Z,90.96
2023-01-03T08:08:45.967Z,91.02
2023-01-03T08:10:05.826Z,90.64
2023-01-03T08:11:28.758Z,91.19
2023-01-03T08:12:50.236Z,90.93
2023-01-03T08:13:53.010Z,91.08
2023-01-03T08:14:54.506Z,91.12
2023-01-03T08:15:58.052Z,91.05
2023-01-03T08:16:59.598Z,91.34
2023-01-03T08:18:02.033Z,91.87
2023-01-03T08:19:04.530Z,91.78
2023-01-03T08:20:07.404Z,91.66
2023-01-03T08:21:12.126Z,91.36
2023-01-03T08:22:13.661Z,91.52
2023-01-03T08:23:16.489Z,91.09
2023-01-03T08:24:19.067Z,90.92
2023-01-03T08:25:21.004Z,90.38
2023-01-03T08:26:23.506Z,91.12
2023-01-03T08:27:25.044Z,90.73
2023-01-03T08:28:28.931Z,91.09
2023-01-03T08:29:31.538Z,91.52
2023-01-03T08:30:37.692Z,91.33
2023-01-03T08:31:43.952Z,90.88
2023-01-03T08:32:45.752Z,90.79
2023-01-03T08:33:51.245Z,91.21
2023-01-03T08:34:54.307Z,90.92
2023-01-03T08:36:01.902Z,90.88
2023-01-03T08:37:10.409Z,91.76
2023-01-03T08:38:17.243Z,92.05
2023-01-03T08:39:24.233Z,92.42
2023-01-03T08:40:26.847Z,93.59
2023-01-03T08:41:32.630Z,94.48
2023-01-03T08:42:34.408Z,94.73
2023-01-03T08:43:41.915Z,94.26
2023-01-03T08:44:45.028Z,92.75
2023-01-03T08:45:51.386Z,92.87
2023-01-03T08:46:56.528Z,92.25
2023-01-03T08:48:01.429Z,91.91
2023-01-03T08:49:04.066Z,91.74
2023-01-03T08:50:07.986Z,91.15
2023-01-03T08:51:10.559Z,90.57
2023-01-03T08:52:12.111Z,90.40
2023-01-03T08:53:14.582Z,90.48
2023-01-03T08:54:16.128Z,90.18
2023-01-03T08:55:18.574Z,90.53
2023-01-03T08:56:21.211Z,91.04
2023-01-03T08:57:22.758Z,91.42
2023-01-03T08:58:25.237Z,91.52
2023-01-03T08:59:28.168Z,92.33
2023-01-03T09:00:30.640Z,91.62
2023-01-03T09:01:32.271Z,90.79
2023-01-03T09:02:35.768Z,90.13
2023-01-03T09:03:38.536Z,89.65
2023-01-03T09:04:40.176Z,89.24
2023-01-03T09:05:42.642Z,89.05
2023-01-03T09:06:44.323Z,88.77
2023-01-03T09:07:46.818Z,88.32
2023-01-03T09:08:48.438Z,87.52
2023-01-03T09:09:50.952Z,87.29
2023-01-03T09:10:53.411Z,87.84
2023-01-03T09:11:54.888Z,88.33
2023-01-03T09:12:57.312Z,88.57
2023-01-03T09:13:58.890Z,88.55
2023-01-03T09:15:02.778Z,88.29
2023-01-03T09:16:06.829Z,88.32
2023-01-03T09:17:08.371Z,88.13
2023-01-03T09:18:11.065Z,88.00
2023-01-03T09:19:13.473Z,88.09
2023-01-03T09:20:18.393Z,87.68
2023-01-03T09:21:20.870Z,87.46
2023-01-03T09:22:23.364Z,87.02
2023-01-03T09:23:26.319Z,86.79
2023-01-03T09:24:29.824Z,86.36
2023-01-03T09:25:37.108Z,85.87
2023-01-03T09:26:39.113Z,86.04
2023-01-03T09:27:45.619Z,85.78
2023-01-03T09:28:47.265Z,85.50
2023-01-03T09:29:49.789Z,85.82
2023-01-03T09:30:52.621Z,86.53
2023-01-03T09:31:55.096Z,87.50
2023-01-03T09:32:58.534Z,87.13
2023-01-03T09:34:02.719Z,87.00
2023-01-03T09:35:05.896Z,85.99
2023-01-03T09:36:08.005Z,85.39
2023-01-03T09:37:10.485Z,84.94
2023-01-03T09:38:14.703Z,84.16
2023-01-03T09:39:16.247Z,84.52
2023-01-03T09:40:19.168Z,84.50
2023-01-03T09:41:23.464Z,84.50
2023-01-03T09:42:45.902Z,84.11
2023-01-03T09:43:51.856Z,83.49
2023-01-03T09:44:55.017Z,83.42
2023-01-03T09:46:01.314Z,83.04
2023-01-03T09:47:04.649Z,83.40
2023-01-03T09:48:07.514Z,83.50
2023-01-03T09:49:15.013Z,83.71
2023-01-03T09:50:38.899Z,83.53
2023-01-03T09:52:03.899Z,82.89
2023-01-03T09:53:32.337Z,82.73
2023-01-03T09:54:57.051Z,82.03
2023-01-03T09:56:21.093Z,83.33
2023-01-03T09:57:45.607Z,82.28
2023-01-03T09:59:18.917Z,84.59
2023-01-03T10:00:45.392Z,81.32
2023-01-03T10:02:25.468Z,81.10
2023-01-03T10:03:51.573Z,78.24
2023-01-03T10:05:22.452Z,77.78
2023-01-03T10:06:35.457Z,77.82
2023-01-03T10:07:55.883Z,79.39
2023-01-03T10:09:12.816Z,79.27
2023-01-03T10:10:21.696Z,78.84
2023-01-03T10:11:33.330Z,78.07
2023-01-03T10:12:45.654Z,77.92
2023-01-03T10:13:59.460Z,77.85
2023-01-03T10:15:15.706Z,77.03
2023-01-03T10:16:27.109Z,76.49
2023-01-03T10:17:36.744Z,75.39
2023-01-03T10:19:00.237Z,75.67
2023-01-03T10:20:28.058Z,76.07
2023-01-03T10:21:46.273Z,74.10
2023-01-03T10:22:49.713Z,73.55
2023-01-03T10:23:54.971Z,73.66
2023-01-03T10:25:06.783Z,69.86
2023-01-03T10:26:13.482Z,68.73
2023-01-03T10:27:18.866Z,68.44
2023-01-03T10:28:25.029Z,66.31
2023-01-03T10:29:27.439Z,64.36
2023-01-03T10:30:38.727Z,63.34
2023-01-03T10:31:55.280Z,63.72
2023-01-03T10:33:26.387Z,62.45
2023-01-03T10:34:28.853Z,63.51
2023-01-03T10:35:33.086Z,64.24
2023-01-03T10:36:35.569Z,64.47
2023-01-03T10:37:39.868Z,65.19
2023-01-03T10:38:51.502Z,65.24
2023-01-03T10:40:04.908Z,65.93
2023-01-03T10:41:17.856Z,67.16
2023-01-03T10:42:20.345Z,67.50
2023-01-03T10:43:29.443Z,67.83
2023-01-03T10:44:33.723Z,69.22
2023-01-03T10:45:50.280Z,70.64
2023-01-03T10:46:54.651Z,71.92
2023-01-03T10:47:59.949Z,72.57
2023-01-03T10:49:28.291Z,73.05
2023-01-03T10:50:31.234Z,73.36
2023-01-03T10:51:42.482Z,72.71
2023-01-03T10:52:45.695Z,73.80
2023-01-03T10:53:50.582Z,74.74
2023-01-03T10:54:55.884Z,76.28
2023-01-03T10:56:00.434Z,77.20
2023-01-03T10:57:02.913Z,78.07
2023-01-03T10:58:17.374Z,78.77
2023-01-03T10:59:23.237Z,79.15
2023-01-03T11:00:31.889Z,78.10
2023-01-03T11:01:34.526Z,78.90
2023-01-03T11:02:43.576Z,78.75
2023-01-03T11:03:51.442Z,79.37
2023-01-03T11:05:12.327Z,80.37
2023-01-03T11:06:16.240Z,79.57
2023-01-03T11:07:18.065Z,79.37
2023-01-03T11:08:23.545Z,79.18
2023-01-03T11:09:27.978Z,79.09
2023-01-03T11:10:37.005Z,80.08
2023-01-03T11:11:43.224Z,80.07
2023-01-03T11:12:46.880Z,80.46
2023-01-03T11:13:49.367Z,80.15
2023-01-03T11:14:53.042Z,80.85
2023-01-03T11:15:56.935Z,81.66
2023-01-03T11:17:02.095Z,81.19
2023-01-03T11:18:07.967Z,80.29
2023-01-03T11:19:19.239Z,80.13
2023-01-03T11:20:38.192Z,79.31
2023-01-03T11:21:49.272Z,78.88
2023-01-03T11:23:03.085Z,78.98
2023-01-03T11:24:14.387Z,79.35
2023-01-03T11:25:29.926Z,79.13
2023-01-03T11:26:44.232Z,78.87
2023-01-03T11:28:15.389Z,79.23
2023-01-03T11:29:36.113Z,79.21
2023-01-03T11:30:45.661Z,79.20
2023-01-03T11:31:52.985Z,79.82
2023-01-03T11:33:08.476Z,79.17
2023-01-03T11:34:25.188Z,78.77
2023-01-03T11:35:53.500Z,79.27
2023-01-03T11:37:01.815Z,79.20
2023-01-03T11:38:16.647Z,77.48
2023-01-03T11:39:42.655Z,77.79
2023-01-03T11:40:48.066Z,78.36
2023-01-03T11:42:06.667Z,78.02
2023-01-03T11:43:27.823Z,77.63
2023-01-03T11:45:22.578Z,78.97
2023-01-03T11:46:42.163Z,76.80
2023-01-03T11:47:51.700Z,74.60
2023-01-03T11:49:06.399Z,69.44
2023-01-03T11:50:27.750Z,65.50
2023-01-03T11:51:39.331Z,65.24
2023-01-03T11:52:48.469Z,62.41
2023-01-03T11:54:03.019Z,59.39
2023-01-03T11:55:35.170Z,57.07
2023-01-03T11:56:41.329Z,55.58
2023-01-03T11:57:55.663Z,55.27
2023-01-03T11:59:08.934Z,55.10
2023-01-03T12:00:18.512Z,53.30
2023-01-03T12:01:39.297Z,56.51
2023-01-03T12:03:03.653Z,56.86
2023-01-03T12:04:25.857Z,56.49
2023-01-03T12:05:49.135Z,53.85
2023-01-03T12:07:45.684Z,52.91
2023-01-03T12:09:05.889Z,51.34
2023-01-03T12:10:14.277Z,52.17
2023-01-03T12:11:55.278Z,51.55
2023-01-03T12:13:29.330Z,51.77
2023-01-03T12:14:39.777Z,53.61
2023-01-03T12:15:46.490Z,52.87
2023-01-03T12:16:57.382Z,52.02
2023-01-03T12:18:03.775Z,53.13
2023-01-03T12:19:14.365Z,51.99
2023-01-03T12:20:22.759Z,51.29
2023-01-03T12:21:34.844Z,51.91
2023-01-03T12:22:41.819Z,52.21
2023-01-03T12:23:46.647Z,51.89
2023-01-03T12:24:54.233Z,53.21
2023-01-03T12:26:05.191Z,53.08
2023-01-03T12:27:16.076Z,52.60
2023-01-03T12:28:24.820Z,51.70
2023-01-03T12:29:32.935Z,49.73
2023-01-03T12:30:41.315Z,48.52
2023-01-03T12:31:49.486Z,50.55
2023-01-03T12:32:56.866Z,47.88
2023-01-03T12:34:08.191Z,49.78
2023-01-03T12:35:26.506Z,50.56
2023-01-03T12:36:36.883Z,50.07
2023-01-03T12:37:42.441Z,48.98
2023-01-03T12:38:56.605Z,48.04
2023-01-03T12:40:02.462Z,47.77
2023-01-03T12:41:14.706Z,47.80
2023-01-03T12:42:24.369Z,47.11
2023-01-03T12:43:34.494Z,48.22
2023-01-03T12:44:40.495Z,49.25
2023-01-03T12:45:48.381Z,47.78
2023-01-03T12:46:53.133Z,45.54
2023-01-03T12:48:02.598Z,45.62
2023-01-03T12:49:13.199Z,46.04
2023-01-03T12:50:19.712Z,45.25
2023-01-03T12:51:25.283Z,49.48
2023-01-03T12:52:28.835Z,48.04
2023-01-03T12:53:37.778Z,48.11
2023-01-03T12:54:46.509Z,48.20
2023-01-03T12:56:06.587Z,47.92
2023-01-03T12:57:39.683Z,49.80
2023-01-03T12:58:52.937Z,49.41
2023-01-03T13:00:20.949Z,50.35
2023-01-03T13:01:29.626Z,49.66
2023-01-03T13:02:44.216Z,48.81
2023-01-03T13:03:50.985Z,49.21
2023-01-03T13:04:56.351Z,48.01
2023-01-03T13:06:03.747Z,46.92
2023-01-03T13:07:13.447Z,46.39
2023-01-03T13:08:23.490Z,47.08
2023-01-03T13:09:32.132Z,49.91
2023-01-03T13:10:38.374Z,47.96
2023-01-03T13:11:45.847Z,49.11
2023-01-03T13:12:52.876Z,46.49
2023-01-03T13:13:59.804Z,46.30
2023-01-03T13:15:16.792Z,47.06
2023-01-03T13:16:41.262Z,50.40
2023-01-03T13:17:44.700Z,51.51
2023-01-03T14:22:38.301Z,66.31
2023-01-03T14:24:01.653Z,65.83
2023-01-03T14:25:05.620Z,66.33
2023-01-03T14:26:15.000Z,65.92
2023-01-03T14:27:21.416Z,66.02
2023-01-03T14:28:26.108Z,65.71
2023-01-03T14:29:29.673Z,65.92
2023-01-03T14:30:34.276Z,67.07
2023-01-03T14:31:43.299Z,66.53
2023-01-03T14:32:46.105Z,66.57
2023-01-03T14:33:52.541Z,66.02
2023-01-03T14:34:55.779Z,67.00
2023-01-03T14:36:03.695Z,66.26
2023-01-03T14:37:08.473Z,66.68
2023-01-03T14:38:23.843Z,67.49
2023-01-03T14:40:34.395Z,67.87
2023-01-03T14:41:38.599Z,67.93
2023-01-03T14:42:45.924Z,68.41
2023-01-03T14:43:47.454Z,69.47
2023-01-03T14:44:57.035Z,69.64
2023-01-03T14:46:04.525Z,71.21
2023-01-03T14:47:15.284Z,71.48
2023-01-03T14:48:17.427Z,71.52
2023-01-03T14:49:23.988Z,70.69
2023-01-03T14:50:29.669Z,69.89
2023-01-03T14:51:34.362Z,69.80
2023-01-03T14:52:40.906Z,69.92
2023-01-03T14:53:46.898Z,70.43
2023-01-03T14:54:56.122Z,70.09
2023-01-03T14:56:01.878Z,70.47
2023-01-03T14:57:05.768Z,70.89
2023-01-03T14:58:24.592Z,70.73
2023-01-03T14:59:27.524Z,71.73
2023-01-03T15:00:33.348Z,72.09
2023-01-03T15:01:37.228Z,71.39
2023-01-03T15:02:42.102Z,71.25
2023-01-03T15:03:47.996Z,71.16
2023-01-03T15:04:53.496Z,70.92
2023-01-03T15:06:00.452Z,70.55
2023-01-03T15:07:12.725Z,70.74
2023-01-03T15:08:23.350Z,72.01
2023-01-03T15:09:26.826Z,72.19
2023-01-03T15:10:36.669Z,72.97
2023-01-03T15:11:56.373Z,72.68
2023-01-03T15:13:04.528Z,74.61
2023-01-03T15:14:08.148Z,74.94
2023-01-03T15:15:20.273Z,74.64
2023-01-03T15:16:26.799Z,74.03
2023-01-03T15:17:29.810Z,75.11
2023-01-03T15:18:36.235Z,75.79
2023-01-03T15:19:41.935Z,76.34
2023-01-03T15:20:45.183Z,76.12
2023-01-03T15:21:48.393Z,76.92
2023-01-03T15:22:51.181Z,76.36
2023-01-03T15:23:54.644Z,76.47
2023-01-03T15:25:05.400Z,78.08
2023-01-03T15:26:19.385Z,79.56
2023-01-03T15:27:45.107Z,84.73
2023-01-03T15:28:53.814Z,85.51